Time;durP1;ratioP1;P1;durP2;ratioP2;P2;SDS_P1;SDS_P2;PMS_P1;PMS_P2;Temp;Humidity;BMP_temperature;BMP_pressure;BME280_temperature;BME280_humidity;BME280_pressure;Samples;Min_cycle;Max_cycle;Signal;HPM_P1;HPM_P2
2022/01/24 00:03:09;;;;;;;100.03;43.40;;;;;;;2.22;100.00;102323.92;3500369;83;99508;-88
2022/01/24 00:08:10;;;;;;;113.67;46.13;;;;;;;2.24;100.00;102333.17;3504634;83;33454;-88
2022/01/24 00:13:59;;;;;;;97.67;44.67;;;;;;;2.25;100.00;102341.02;3504348;83;99063;-88
2022/01/24 00:18:35;;;;;;;92.40;43.70;;;;;;;2.30;100.00;102335.58;3500411;83;98884;-88
2022/01/24 00:28:46;;;;;;;78.05;37.70;;;;;;;2.30;100.00;102327.42;3541092;82;99252;-88
2022/01/24 00:33:47;;;;;;;84.60;39.80;;;;;;;2.34;100.00;102333.94;3552329;82;99126;-88
2022/01/24 00:38:48;;;;;;;101.33;43.33;;;;;;;2.31;100.00;102326.36;3500782;83;99825;-88
2022/01/24 00:44:17;;;;;;;94.30;42.97;;;;;;;2.23;100.00;102327.44;3496498;83;33017;-88
2022/01/24 00:54:52;;;;;;;78.60;39.27;;;;;;;2.26;100.00;102327.73;3501705;83;98951;-88
2022/01/24 00:59:09;;;;;;;95.55;39.63;;;;;;;2.29;100.00;102328.52;3469650;83;98912;-89
2022/01/24 01:04:10;;;;;;;80.38;38.38;;;;;;;2.35;100.00;102330.69;3472516;83;99069;-88
2022/01/24 01:19:52;;;;;;;89.30;38.02;;;;;;;2.35;100.00;102336.92;3482897;83;98853;-88
2022/01/24 01:24:55;;;;;;;74.32;35.10;;;;;;;2.31;100.00;102332.33;3507660;83;98906;-88
2022/01/24 01:30:04;;;;;;;91.27;37.03;;;;;;;2.28;100.00;102332.33;3466651;83;98984;-89
2022/01/24 01:56:23;;;;;;;85.20;38.33;;;;;;;2.29;100.00;102304.63;3447848;83;25755;-89
2022/01/24 02:01:24;;;;;;;78.47;36.93;;;;;;;2.31;100.00;102303.80;3493160;83;98855;-88
2022/01/24 02:06:25;;;;;;;80.17;33.90;;;;;;;2.35;100.00;102299.45;3510777;83;98709;-89
2022/01/24 02:11:26;;;;;;;81.53;36.77;;;;;;;2.35;100.00;102295.38;3492624;83;99472;-89
2022/01/24 02:16:41;;;;;;;82.03;36.20;;;;;;;2.33;100.00;102303.79;3542734;82;98988;-89
2022/01/24 02:21:46;;;;;;;78.97;33.33;;;;;;;2.33;100.00;102304.33;3496345;83;99256;-89
2022/01/24 02:26:48;;;;;;;69.58;31.27;;;;;;;2.34;100.00;102305.95;3483103;83;25952;-88
2022/01/24 02:31:50;;;;;;;66.82;32.85;;;;;;;2.33;100.00;102309.76;3444879;83;99155;-89
2022/01/24 02:36:51;;;;;;;69.53;32.80;;;;;;;2.32;100.00;102310.86;3504506;83;99190;-89
2022/01/24 02:52:31;;;;;;;70.43;31.80;;;;;;;2.33;100.00;102312.47;3500290;83;99026;-89
2022/01/24 02:57:31;;;;;;;57.37;27.43;;;;;;;2.26;100.00;102314.67;3494325;83;99066;-89
2022/01/24 03:02:32;;;;;;;62.03;30.27;;;;;;;2.20;100.00;102311.14;3473384;83;98500;-89
2022/01/24 03:07:33;;;;;;;54.43;24.37;;;;;;;2.18;100.00;102307.91;3475584;83;98936;-88
2022/01/24 03:12:45;;;;;;;54.60;25.73;;;;;;;2.17;100.00;102311.71;3466130;83;99243;-88
2022/01/24 03:17:45;;;;;;;57.13;25.62;;;;;;;2.20;100.00;102311.70;3477016;83;99122;-89
2022/01/24 03:22:46;;;;;;;52.87;24.97;;;;;;;2.21;100.00;102299.22;3464740;83;99037;-89
2022/01/24 03:27:47;;;;;;;47.47;23.40;;;;;;;2.25;100.00;102306.27;3462181;83;99145;-89
2022/01/24 03:32:48;;;;;;;52.00;24.87;;;;;;;2.28;100.00;102320.11;3529992;82;98615;-88
2022/01/24 03:37:49;;;;;;;53.83;22.93;;;;;;;2.25;100.00;102326.08;3478984;84;98739;-88
2022/01/24 03:42:50;;;;;;;48.80;21.50;;;;;;;2.25;100.00;102339.66;3474259;83;98989;-89
2022/01/24 03:53:06;;;;;;;46.27;21.70;;;;;;;2.31;100.00;102330.44;3420044;82;99481;-89
2022/01/24 03:58:07;;;;;;;52.43;24.63;;;;;;;2.30;100.00;102330.70;3537158;82;99001;-89
2022/01/24 04:03:08;;;;;;;44.73;22.47;;;;;;;2.31;100.00;102326.89;3525680;82;99065;-88
2022/01/24 04:08:09;;;;;;;47.73;24.90;;;;;;;2.35;100.00;102311.67;3523476;82;33131;-88
2022/01/24 04:23:33;;;;;;;44.08;21.55;;;;;;;2.36;100.00;102314.66;3514160;82;99222;-89
2022/01/24 04:28:33;;;;;;;43.10;19.23;;;;;;;2.37;100.00;102315.74;3508740;82;99038;-89
2022/01/24 04:33:34;;;;;;;41.63;19.27;;;;;;;2.38;100.00;102311.10;3520593;81;99005;-88
2022/01/24 04:38:36;;;;;;;43.57;21.90;;;;;;;2.38;100.00;102309.75;3509040;83;103588;-89
2022/01/24 04:43:54;;;;;;;42.13;19.83;;;;;;;2.37;100.00;102315.74;3517430;82;99120;-88
2022/01/24 04:59:15;;;;;;;45.10;21.63;;;;;;;2.39;100.00;102305.93;3530658;82;99083;-89
2022/01/24 05:04:16;;;;;;;46.97;22.03;;;;;;;2.41;100.00;102311.92;3521573;82;98834;-88
2022/01/24 05:09:19;;;;;;;58.23;26.07;;;;;;;2.43;100.00;102311.09;3531037;82;99224;-88
2022/01/24 05:25:10;;;;;;;57.23;24.87;;;;;;;2.37;100.00;102325.78;3504128;83;26023;-89
2022/01/24 05:30:12;;;;;;;58.23;25.60;;;;;;;2.37;100.00;102327.14;3499152;83;99559;-88
2022/01/24 05:35:14;;;;;;;59.33;25.53;;;;;;;2.39;100.00;102330.39;3498900;83;99022;-88
2022/01/24 05:40:15;;;;;;;57.60;26.13;;;;;;;2.37;100.00;102328.50;3500284;83;99023;-88
2022/01/24 05:45:16;;;;;;;58.13;26.53;;;;;;;2.34;100.00;102339.38;3547354;82;99098;-88
2022/01/24 05:50:17;;;;;;;55.07;27.93;;;;;;;2.34;100.00;102340.73;3502763;83;98739;-88
2022/01/24 05:55:18;;;;;;;55.20;25.23;;;;;;;2.34;100.00;102346.70;3474289;83;99306;-88
2022/01/24 06:00:22;;;;;;;55.73;24.63;;;;;;;2.34;100.00;102343.98;3475751;83;99080;-88
2022/01/24 06:05:23;;;;;;;59.63;28.60;;;;;;;2.35;100.00;102342.92;3473552;83;98951;-88
2022/01/24 06:10:27;;;;;;;57.83;26.33;;;;;;;2.36;100.00;102354.05;3470772;83;99095;-89
2022/01/24 06:15:34;;;;;;;54.05;25.12;;;;;;;2.34;100.00;102354.85;3434442;84;99028;-88
2022/01/24 06:20:35;;;;;;;52.27;25.07;;;;;;;2.34;100.00;102358.39;3428422;83;98970;-88
2022/01/24 06:25:36;;;;;;;57.17;26.83;;;;;;;2.35;100.00;102368.17;3516639;81;99393;-89
2022/01/24 06:30:38;;;;;;;52.33;26.73;;;;;;;2.35;100.00;102361.38;3437827;84;99648;-88
2022/01/24 06:35:38;;;;;;;68.30;34.87;;;;;;;2.33;100.00;102345.91;3523071;82;99074;-88
2022/01/24 06:40:39;;;;;;;92.07;50.10;;;;;;;2.36;100.00;102360.28;3509846;83;99092;-88
2022/01/24 06:45:40;;;;;;;82.13;43.63;;;;;;;2.39;100.00;102361.63;3493510;83;99013;-88
2022/01/24 06:50:41;;;;;;;67.40;31.20;;;;;;;2.37;100.00;102368.73;3479430;83;99215;-88
2022/01/24 06:55:42;;;;;;;57.07;27.13;;;;;;;2.33;100.00;102374.97;3488458;83;98914;-88
2022/01/24 07:00:43;;;;;;;73.97;36.20;;;;;;;2.29;100.00;102366.55;3485761;83;99055;-88
2022/01/24 07:05:44;;;;;;;66.87;35.13;;;;;;;2.34;100.00;102380.66;3484323;83;99505;-87
2022/01/24 07:10:48;;;;;;;62.80;30.10;;;;;;;2.34;100.00;102384.20;3473219;83;99743;-88
2022/01/24 07:15:58;;;;;;;51.10;26.03;;;;;;;2.36;100.00;102381.22;3468685;84;99462;-89
2022/01/24 07:20:52;;;;;;;53.55;24.52;;;;;;;2.34;100.00;102386.92;3513351;82;98618;-88
2022/01/24 07:25:53;;;;;;;44.50;22.33;;;;;;;2.32;100.00;102386.93;3522157;82;98859;-88
2022/01/24 07:30:54;;;;;;;52.93;23.38;;;;;;;2.31;100.00;102386.13;3523068;81;98910;-88
2022/01/24 07:36:10;;;;;;;;;;;;;;;;;;;;;
2022/01/24 07:41:00;;;;;;;55.87;27.47;;;;;;;2.34;100.00;102391.00;3483478;82;99048;-88
2022/01/24 07:46:01;;;;;;;51.92;25.08;;;;;;;2.36;100.00;102394.25;3520574;82;99114;-88
2022/01/24 07:51:01;;;;;;;49.30;24.37;;;;;;;2.38;100.00;102402.95;3482986;82;98723;-88
2022/01/24 07:56:04;;;;;;;49.20;23.07;;;;;;;2.42;100.00;102404.58;3519151;82;99328;-87
2022/01/24 08:01:05;;;;;;;44.25;20.97;;;;;;;2.44;100.00;102398.31;3500303;82;99232;-88
2022/01/24 08:06:06;;;;;;;44.90;21.30;;;;;;;2.47;100.00;102398.56;3507682;83;99016;-88
2022/01/24 08:11:08;;;;;;;45.77;21.17;;;;;;;2.48;100.00;102395.32;3497836;83;99066;-88
2022/01/24 08:16:10;;;;;;;49.00;22.20;;;;;;;2.49;100.00;102392.86;3500083;83;98227;-88
2022/01/24 08:21:11;;;;;;;47.20;23.23;;;;;;;2.50;100.00;102391.77;3504700;82;99187;-87
2022/01/24 08:26:12;;;;;;;47.90;23.80;;;;;;;2.47;100.00;102383.63;3496725;83;98642;-88
2022/01/24 08:31:14;;;;;;;67.23;32.53;;;;;;;2.51;100.00;102388.78;3476654;83;99178;-88
2022/01/24 08:36:15;;;;;;;45.77;24.80;;;;;;;2.54;100.00;102388.25;3500030;83;99513;-88
2022/01/24 08:41:25;;;;;;;46.30;21.80;;;;;;;2.57;100.00;102392.31;3471856;83;99471;-89
2022/01/24 08:46:22;;;;;;;40.45;20.32;;;;;;;2.61;100.00;102387.41;3499561;83;99093;-89
2022/01/24 08:51:23;;;;;;;41.40;20.15;;;;;;;2.68;100.00;102387.12;3495334;83;99151;-88
2022/01/24 08:56:25;;;;;;;42.23;19.10;;;;;;;2.75;100.00;102391.70;3510738;83;31448;-89
2022/01/24 09:01:26;;;;;;;39.00;19.00;;;;;;;2.80;100.00;102399.28;3508430;82;98940;-88
2022/01/24 09:06:28;;;;;;;41.07;22.90;;;;;;;2.88;100.00;102407.42;3517218;82;99462;-89
2022/01/24 09:11:37;;;;;;;39.40;20.17;;;;;;;2.96;100.00;102401.42;3509669;83;99563;-89
2022/01/24 09:16:38;;;;;;;38.83;19.20;;;;;;;3.01;100.00;102395.39;3522751;82;99618;-88
2022/01/24 09:21:40;;;;;;;47.08;27.55;;;;;;;3.06;100.00;102392.66;3436319;84;99016;-88
2022/01/24 09:26:41;;;;;;;45.27;22.53;;;;;;;3.14;100.00;102393.45;3425129;84;31519;-88
2022/01/24 09:31:44;;;;;;;45.37;20.43;;;;;;;3.21;100.00;102380.34;3413487;83;98955;-88
2022/01/24 09:36:44;;;;;;;36.42;17.40;;;;;;;3.33;100.00;102378.09;3544948;81;98783;-88
2022/01/24 09:41:46;;;;;;;30.50;14.47;;;;;;;3.44;100.00;102381.01;3488729;83;98967;-88
2022/01/24 09:46:47;;;;;;;28.97;14.17;;;;;;;3.53;100.00;102383.95;3469336;84;99055;-88
2022/01/24 09:51:50;;;;;;;30.10;13.07;;;;;;;3.58;100.00;102382.55;3464014;83;99037;-88
2022/01/24 09:56:50;;;;;;;21.35;11.33;;;;;;;3.64;100.00;102376.80;3469636;83;33698;-88
2022/01/24 10:01:51;;;;;;;22.77;11.17;;;;;;;3.73;100.00;102381.91;3438574;84;98988;-88
2022/01/24 10:07:11;;;;;;;21.97;11.13;;;;;;;3.81;100.00;102381.29;3475341;83;99528;-88
2022/01/24 10:16:24;;;;;;;21.68;10.00;;;;;;;3.86;100.00;102375.80;3518383;82;99057;-88
2022/01/24 10:17:34;;;;;;;20.92;10.25;;;;;;;3.96;100.00;102364.83;3460874;83;99160;-88
2022/01/24 10:22:40;;;;;;;24.05;10.15;;;;;;;4.07;100.00;102365.00;3468391;83;99028;-87
2022/01/24 10:27:41;;;;;;;20.00;8.50;;;;;;;4.14;100.00;102359.22;3480713;83;99048;-88
2022/01/24 10:32:48;;;;;;;19.10;8.85;;;;;;;4.13;100.00;102354.31;3486571;83;98577;-88
2022/01/24 10:37:55;;;;;;;;;;;;;;;4.07;100.00;102352.73;3526715;82;98773;-87
2022/01/24 10:43:20;;;;;;;19.07;7.97;;;;;;;4.08;100.00;102346.18;3443885;82;84894;-87
2022/01/24 10:48:31;;;;;;;19.92;9.45;;;;;;;4.09;100.00;102338.83;3435455;83;98947;-87
2022/01/24 10:53:49;;;;;;;17.30;8.08;;;;;;;4.12;100.00;102336.34;3474833;83;98919;-89
2022/01/24 10:58:50;;;;;;;19.02;8.50;;;;;;;4.16;100.00;102334.64;3466129;83;98578;-86
2022/01/24 11:04:03;;;;;;;17.10;8.20;;;;;;;4.20;100.00;102326.16;3463643;84;98875;-87
2022/01/24 11:09:22;;;;;;;20.97;9.65;;;;;;;4.21;100.00;102326.98;3456870;83;98785;-86
2022/01/24 11:14:25;;;;;;;21.30;10.28;;;;;;;4.25;100.00;102322.59;3473747;83;98715;-87
2022/01/24 11:19:34;;;;;;;17.35;9.28;;;;;;;4.27;100.00;102325.26;3423185;83;98993;-87
2022/01/24 11:24:44;;;;;;;24.40;11.70;;;;;;;4.27;100.00;102327.19;3524697;82;98829;-87
2022/01/24 11:29:44;;;;;;;26.65;11.30;;;;;;;4.24;100.00;102315.48;3516945;82;99068;-87
2022/01/24 11:34:52;;;;;;;19.60;10.08;;;;;;;4.22;100.00;102320.43;3434651;84;99000;-86
2022/01/24 11:39:58;;;;;;;16.30;8.23;;;;;;;4.17;100.00;102319.94;3514497;82;99413;-87
2022/01/24 11:45:04;;;;;;;18.37;9.43;;;;;;;4.18;100.00;102313.39;3532827;83;25865;-86
2022/01/24 11:50:26;;;;;;;22.07;12.53;;;;;;;4.18;100.00;102313.39;3516016;82;98712;-86
2022/01/24 11:55:36;;;;;;;24.95;11.45;;;;;;;4.20;100.00;102300.27;3521565;82;98878;-87
2022/01/24 12:00:44;;;;;;;20.00;11.25;;;;;;;4.16;100.00;102295.70;3514651;82;98984;-87
2022/01/24 12:05:51;;;;;;;25.62;11.97;;;;;;;4.11;100.00;102293.84;3522390;82;99108;-86
2022/01/24 12:10:51;;;;;;;21.45;10.43;;;;;;;4.08;100.00;102286.77;3515072;82;99118;-88
2022/01/24 12:16:07;;;;;;;22.93;10.85;;;;;;;4.09;100.00;102285.70;3496058;83;99438;-86
2022/01/24 12:21:17;;;;;;;19.52;10.55;;;;;;;4.09;100.00;102282.41;3445570;83;98755;-86
2022/01/24 12:26:22;;;;;;;17.27;9.60;;;;;;;4.10;100.00;102280.50;3509221;83;99409;-86
2022/01/24 12:31:44;;;;;;;18.65;9.20;;;;;;;4.05;100.00;102270.45;3494640;83;98691;-87
2022/01/24 12:37:02;;;;;;;23.20;10.32;;;;;;;4.04;100.00;102266.68;3451073;82;98926;-85
2022/01/24 12:42:17;;;;;;;17.50;8.77;;;;;;;4.07;100.00;102254.65;3474443;83;99106;-86
2022/01/24 12:47:26;;;;;;;14.75;8.13;;;;;;;4.07;100.00;102261.45;3509543;83;98906;-87
2022/01/24 12:52:29;;;;;;;15.18;7.53;;;;;;;4.10;100.00;102266.31;3456871;82;98964;-87
2022/01/24 12:57:37;;;;;;;15.15;7.55;;;;;;;4.05;100.00;102259.55;3443996;84;33144;-88
2022/01/24 13:02:37;;;;;;;18.05;8.30;;;;;;;4.02;100.00;102259.33;3444064;84;99069;-87
2022/01/24 13:07:41;;;;;;;20.02;9.70;;;;;;;4.00;100.00;102254.73;3418705;84;99385;-87
2022/01/24 13:12:44;;;;;;;19.92;9.70;;;;;;;4.03;100.00;102258.22;3426275;84;99022;-87
2022/01/24 13:23:08;;;;;;;20.15;10.40;;;;;;;3.95;100.00;102254.24;3502964;83;98837;-87
2022/01/24 13:28:13;;;;;;;19.77;10.95;;;;;;;3.96;100.00;102250.95;3496150;83;99177;-88
2022/01/24 13:33:22;;;;;;;22.62;11.57;;;;;;;3.91;100.00;102239.56;3507709;81;98553;-89
2022/01/24 13:38:33;;;;;;;18.55;10.03;;;;;;;3.88;100.00;102241.48;3508288;81;98945;-87
2022/01/24 13:43:52;;;;;;;20.75;11.35;;;;;;;3.88;100.00;102246.94;3503177;82;99438;-87
2022/01/24 13:49:00;;;;;;;27.60;14.60;;;;;;;3.90;100.00;102250.20;3504425;83;99236;-87
2022/01/24 13:54:11;;;;;;;28.35;15.28;;;;;;;3.92;100.00;102247.99;3429030;83;99511;-87
2022/01/24 13:59:23;;;;;;;26.80;14.23;;;;;;;3.88;100.00;102244.78;3508973;82;99038;-87
2022/01/24 14:04:50;;;;;;;26.12;13.85;;;;;;;3.86;100.00;102249.15;3521307;82;99103;-90
2022/01/24 14:10:01;;;;;;;28.50;15.50;;;;;;;3.84;100.00;102247.81;3536967;82;99086;-87
2022/01/24 14:15:14;;;;;;;28.87;15.40;;;;;;;3.85;100.00;102246.17;3519818;82;33198;-88
2022/01/24 14:20:17;;;;;;;31.55;17.12;;;;;;;3.86;100.00;102246.96;3515012;81;98944;-88
2022/01/24 14:25:25;;;;;;;;;;;;;;;3.85;100.00;102244.81;3467718;84;99395;-88
2022/01/24 14:30:32;;;;;;;32.42;16.95;;;;;;;3.86;100.00;102236.06;3479959;82;85452;-88
2022/01/24 14:35:53;;;;;;;33.60;18.25;;;;;;;3.82;100.00;102239.13;3540111;82;99551;-88
2022/01/24 14:40:58;;;;;;;33.48;17.82;;;;;;;3.84;100.00;102241.83;3489457;83;99254;-88
2022/01/24 14:46:07;;;;;;;33.65;17.92;;;;;;;3.85;100.00;102245.34;3504401;83;99020;-88
2022/01/24 14:51:08;;;;;;;32.88;17.20;;;;;;;3.81;100.00;102249.20;3498820;83;99144;-89
2022/01/24 14:56:14;;;;;;;34.80;18.33;;;;;;;3.81;100.00;102241.56;3484973;82;98884;-88
2022/01/24 15:01:16;;;;;;;34.60;18.90;;;;;;;3.79;100.00;102236.97;3508167;82;98888;-88
2022/01/24 15:06:17;;;;;;;37.03;19.63;;;;;;;3.76;100.00;102236.99;3459832;84;99197;-87
2022/01/24 15:11:23;;;;;;;38.87;19.23;;;;;;;3.74;100.00;102239.20;3404174;84;99580;-88
2022/01/24 15:17:25;;;;;;;36.83;19.32;;;;;;;3.72;100.00;102240.59;3529063;82;99628;-87
2022/01/24 15:26:51;;;;;;;36.20;19.17;;;;;;;3.70;100.00;102235.95;3501841;82;98822;-88
2022/01/24 15:31:55;;;;;;;35.70;20.20;;;;;;;3.69;100.00;102233.80;3490319;83;98921;-88
2022/01/24 15:36:58;;;;;;;38.73;19.98;;;;;;;3.68;100.00;102231.36;3444431;84;99472;-88
2022/01/24 15:42:05;;;;;;;44.03;24.02;;;;;;;3.68;100.00;102224.02;3544966;81;99339;-89
2022/01/24 15:47:58;;;;;;;;;;;;;;;;;;;;;
2022/01/24 15:52:13;;;;;;;61.58;30.60;;;;;;;3.70;100.00;102230.52;3444126;83;99031;-87
2022/01/24 16:02:33;;;;;;;49.38;23.18;;;;;;;3.73;100.00;102232.14;3495863;83;98915;-87
2022/01/24 16:07:36;;;;;;;59.07;28.33;;;;;;;3.75;100.00;102237.27;3544290;82;98844;-87
2022/01/24 16:12:43;;;;;;;52.50;26.35;;;;;;;3.73;100.00;102223.97;3517898;82;99066;-87
2022/01/24 16:17:47;;;;;;;51.58;24.87;;;;;;;3.72;100.00;102224.25;3509311;83;99332;-87
2022/01/24 16:27:56;;;;;;;66.15;31.50;;;;;;;3.72;100.00;102228.34;3540170;82;99075;-88
2022/01/24 16:33:00;;;;;;;63.87;30.23;;;;;;;3.75;100.00;102227.73;3543974;82;98416;-86
2022/01/24 16:38:01;;;;;;;67.00;28.07;;;;;;;3.80;100.00;102227.16;3500180;83;98910;-87
2022/01/24 16:43:18;;;;;;;60.30;28.98;;;;;;;3.81;100.00;102229.31;3507893;83;98984;-87
2022/01/24 16:48:13;;;;;;;64.87;30.25;;;;;;;3.85;100.00;102227.64;3525961;82;99079;-87
2022/01/24 16:53:16;;;;;;;75.00;36.68;;;;;;;3.87;100.00;102220.02;3467629;83;99077;-87
2022/01/24 16:58:25;;;;;;;73.33;34.95;;;;;;;3.90;100.00;102227.05;3496513;83;99119;-87
2022/01/24 17:03:29;;;;;;;72.80;33.10;;;;;;;3.90;100.00;102216.69;3460993;83;98818;-89
2022/01/24 17:08:30;;;;;;;64.47;31.57;;;;;;;3.91;100.00;102219.14;3413617;84;99257;-88
2022/01/24 17:13:33;;;;;;;64.07;31.27;;;;;;;3.92;100.00;102209.03;3417559;84;99297;-89
2022/01/24 17:18:35;;;;;;;77.92;36.63;;;;;;;3.92;100.00;102213.12;3413213;84;99055;-88
2022/01/24 17:23:35;;;;;;;76.37;38.48;;;;;;;3.93;100.00;102209.32;3487987;83;99104;-88
2022/01/24 17:28:36;;;;;;;68.30;34.30;;;;;;;3.96;100.00;102211.45;3439961;82;99040;-88
2022/01/24 17:33:37;;;;;;;63.03;30.90;;;;;;;3.98;100.00;102211.42;3481507;83;31962;-89
2022/01/24 17:38:40;;;;;;;69.63;33.77;;;;;;;3.98;100.00;102214.72;3468573;82;98803;-89
2022/01/24 17:43:41;;;;;;;61.50;30.00;;;;;;;3.86;100.00;102183.78;3481877;83;98838;-88
2022/01/24 17:48:42;;;;;;;68.97;31.60;;;;;;;3.97;100.00;102208.44;3465938;82;99446;-89
2022/01/24 17:53:44;;;;;;;66.40;29.17;;;;;;;3.96;100.00;102200.55;3475532;82;99458;-88
2022/01/24 17:58:45;;;;;;;67.70;29.52;;;;;;;3.95;100.00;102203.84;3468890;82;98985;-89
2022/01/24 18:03:49;;;;;;;71.43;33.17;;;;;;;3.94;100.00;102191.30;3486636;82;31454;-89
2022/01/24 18:08:50;;;;;;;72.27;33.80;;;;;;;3.94;100.00;102194.02;3459796;83;98962;-89
2022/01/24 18:13:51;;;;;;;61.13;29.83;;;;;;;3.93;100.00;102193.77;3500383;83;99146;-89
2022/01/24 18:18:52;;;;;;;64.77;28.83;;;;;;;3.94;100.00;102190.51;3497093;83;99103;-89
2022/01/24 18:23:53;;;;;;;62.23;29.57;;;;;;;3.94;100.00;102192.66;3509354;83;99079;-88
2022/01/24 18:28:54;;;;;;;62.33;29.98;;;;;;;3.95;100.00;102205.20;3532558;82;99521;-88
2022/01/24 18:33:55;;;;;;;60.70;30.03;;;;;;;3.97;100.00;102204.36;3547444;82;32132;-88
2022/01/24 18:38:58;;;;;;;71.53;31.10;;;;;;;3.96;100.00;102185.57;3501395;83;99241;-89
2022/01/24 18:44:00;;;;;;;66.62;30.17;;;;;;;3.94;100.00;102191.30;3574805;82;98809;-89
2022/01/24 18:49:01;;;;;;;75.20;32.45;;;;;;;3.93;100.00;102185.59;3543355;82;99465;-89
2022/01/24 18:54:03;;;;;;;70.37;32.53;;;;;;;3.93;100.00;102176.63;3494409;83;99437;-89
2022/01/24 18:59:03;;;;;;;67.83;31.03;;;;;;;3.93;100.00;102173.91;3501934;83;99396;-89
2022/01/24 19:04:04;;;;;;;69.80;32.93;;;;;;;3.93;100.00;102168.46;3504367;83;99177;-89
2022/01/24 19:09:06;;;;;;;67.03;31.80;;;;;;;3.93;100.00;102173.34;3499633;83;99163;-89
2022/01/24 19:14:06;;;;;;;58.98;29.50;;;;;;;3.93;100.00;102167.09;3504268;83;98970;-89
2022/01/24 19:24:26;;;;;;;69.95;31.40;;;;;;;3.93;100.00;102165.17;3538343;82;99064;-90
2022/01/24 19:29:27;;;;;;;60.93;28.83;;;;;;;3.94;100.00;102164.63;3526754;82;99443;-91
2022/01/24 19:34:28;;;;;;;55.50;26.03;;;;;;;3.93;100.00;102162.44;3503248;83;99531;-91
2022/01/24 19:39:39;;;;;;;58.02;26.02;;;;;;;3.95;100.00;102164.34;3507508;83;98921;-90
2022/01/24 19:44:40;;;;;;;50.60;22.55;;;;;;;3.95;100.00;102168.44;3503539;83;98881;-91
2022/01/24 19:49:41;;;;;;;49.53;21.80;;;;;;;3.99;100.00;102173.53;3497137;83;98740;-91
2022/01/24 19:54:51;;;;;;;61.37;28.07;;;;;;;3.99;100.00;102176.27;3510036;83;99109;-90
2022/01/24 19:59:46;;;;;;;68.75;28.12;;;;;;;4.01;100.00;102175.44;3539566;82;99073;-90
2022/01/24 20:04:47;;;;;;;65.72;26.05;;;;;;;4.01;100.00;102163.18;3483620;83;98990;-90
2022/01/24 20:09:51;;;;;;;57.10;25.07;;;;;;;4.01;100.00;102163.72;3455754;83;99227;-90
2022/01/24 20:14:54;;;;;;;56.70;23.92;;;;;;;4.02;100.00;102170.78;3481329;83;98980;-90
2022/01/24 20:19:55;;;;;;;55.80;25.52;;;;;;;4.03;100.00;102168.31;3478636;83;99266;-90
2022/01/24 20:24:57;;;;;;;47.70;22.90;;;;;;;4.02;100.00;102172.97;3451595;84;31490;-90
2022/01/24 20:29:58;;;;;;;41.37;20.30;;;;;;;4.01;100.00;102169.17;3466332;83;99532;-90
2022/01/24 20:35:00;;;;;;;39.67;18.75;;;;;;;4.01;100.00;102171.89;3471496;83;99001;-91
2022/01/24 20:40:05;;;;;;;36.08;16.37;;;;;;;4.02;100.00;102177.05;3480042;83;99126;-89
2022/01/24 20:45:20;;;;;;;31.37;16.10;;;;;;;4.00;100.00;102173.83;3475880;83;98954;-90
2022/01/24 20:50:27;;;;;;;36.15;16.25;;;;;;;4.01;100.00;102174.08;3463869;83;99013;-91
2022/01/24 20:55:26;;;;;;;26.90;13.28;;;;;;;4.01;100.00;102169.98;3463895;84;99182;-90
2022/01/24 21:00:32;;;;;;;24.15;12.45;;;;;;;4.00;100.00;102171.09;3473057;83;99084;-90
2022/01/24 21:05:36;;;;;;;24.85;13.40;;;;;;;3.98;100.00;102167.83;3482467;83;99036;-91
2022/01/24 21:10:38;;;;;;;26.65;13.15;;;;;;;3.97;100.00;102171.67;3506699;83;98666;-90
2022/01/24 21:15:39;;;;;;;30.35;12.33;;;;;;;3.98;100.00;102178.73;3508166;83;32534;-90
2022/01/24 21:20:40;;;;;;;45.97;20.33;;;;;;;3.93;100.00;102164.38;3502473;83;98986;-90
2022/01/24 21:25:41;;;;;;;36.03;14.63;;;;;;;3.91;100.00;102177.45;3506828;83;99017;-90
2022/01/24 21:30:42;;;;;;;24.07;10.60;;;;;;;3.88;100.00;102172.03;3553227;82;99045;-91
2022/01/24 21:35:44;;;;;;;25.00;10.37;;;;;;;3.85;100.00;102160.38;3456802;83;31453;-90
2022/01/24 21:40:55;;;;;;;35.53;14.90;;;;;;;3.83;100.00;102155.75;3484718;83;98878;-90
2022/01/24 21:46:20;;;;;;;26.90;12.03;;;;;;;3.81;100.00;102153.88;3540937;82;98999;-90
2022/01/24 21:51:24;;;;;;;21.57;10.00;;;;;;;3.82;100.00;102138.36;3499381;83;99032;-90
2022/01/24 21:56:25;;;;;;;24.35;11.28;;;;;;;3.77;100.00;102125.59;3508929;83;99095;-93
2022/01/24 22:01:28;;;;;;;30.72;11.88;;;;;;;3.74;100.00;102119.92;3479468;83;99117;-91
2022/01/24 22:06:33;;;;;;;25.62;9.93;;;;;;;3.71;100.00;102115.87;3535351;82;99108;-90
2022/01/24 22:11:37;;;;;;;20.20;10.30;;;;;;;3.68;100.00;102116.47;3500406;83;98841;-90
2022/01/24 22:16:37;;;;;;;26.12;11.15;;;;;;;3.66;100.00;102111.84;3476340;83;98924;-91
2022/01/24 22:21:38;;;;;;;17.63;8.80;;;;;;;3.64;100.00;102120.86;3502206;83;98968;-90
2022/01/24 22:26:39;;;;;;;19.30;9.93;;;;;;;3.60;100.00;102116.30;3507773;83;98928;-90
2022/01/24 22:31:40;;;;;;;18.90;9.70;;;;;;;3.58;100.00;102117.11;3493226;83;98928;-90
2022/01/24 22:36:40;;;;;;;18.80;9.93;;;;;;;3.58;100.00;102125.28;3512512;83;98864;-89
2022/01/24 22:46:42;;;;;;;16.10;7.92;;;;;;;3.54;100.00;102121.50;3508238;83;98520;-89
2022/01/24 22:51:48;;;;;;;24.00;9.50;;;;;;;3.50;100.00;102121.28;3499765;83;98671;-90
2022/01/24 22:56:49;;;;;;;17.42;8.70;;;;;;;3.47;100.00;102108.27;3507939;83;98827;-90
2022/01/24 23:01:50;;;;;;;15.47;8.67;;;;;;;3.44;100.00;102104.74;3491694;83;98842;-90
2022/01/24 23:06:51;;;;;;;15.70;7.43;;;;;;;3.44;100.00;102104.74;3497605;83;98825;-90
2022/01/24 23:11:52;;;;;;;14.70;7.63;;;;;;;3.42;100.00;102093.88;3501874;83;98906;-91
2022/01/24 23:22:13;;;;;;;19.10;9.73;;;;;;;3.36;100.00;102085.52;3504403;83;98727;-90
2022/01/24 23:27:20;;;;;;;19.70;8.80;;;;;;;3.32;100.00;102079.02;3508799;83;98928;-91
2022/01/24 23:32:47;;;;;;;17.07;8.03;;;;;;;3.30;100.00;102079.87;3473941;83;99200;-90
2022/01/24 23:42:53;;;;;;;16.10;7.55;;;;;;;3.30;100.00;102058.10;3497141;83;98933;-90
2022/01/24 23:47:53;;;;;;;18.90;8.47;;;;;;;3.25;100.00;102047.27;3512292;83;98906;-90
2022/01/24 23:52:55;;;;;;;15.30;8.00;;;;;;;3.23;100.00;102050.27;3494644;83;98654;-90
2022/01/24 23:58:04;;;;;;;16.53;8.40;;;;;;;3.22;100.00;102053.30;3512030;83;98664;-89
